KMBL/MBL METAR and TAF weather

Enter ICAO airport designator
Station Type Date Time Source
KMBL METAR 2024/04/18 06:12 UTC NOAA

KMBL 180612Z AUTO 27014G22KT 10SM SCT024 BKN035 OVC045 08/06 A2987 RMK AO2


Station Type Date Time Source
KMBL Decoded METAR 2024/04/18 06:12 UTC NOAA

Manistee, Manistee County-Blacker Airport, MI, United States (KMBL) 44-16N 086-15W
Apr 18, 2024 - 02:12 AM EDT / 2024.04.18 0612 UTC
Wind: from the W (270 degrees) at 16 MPH (14 KT) gusting to 25 MPH (22 KT):0
Visibility: 10 mile(s):0
Sky conditions: overcast
Temperature: 46 F (8 C)
Dew Point: 42 F (6 C)
Relative Humidity: 87%
Pressure (altimeter): 29.87 in. Hg (1011 hPa)
ob: KMBL 180612Z AUTO 27014G22KT 10SM SCT024 BKN035 OVC045 08/06 A2987 RMK AO2
cycle: 6

Station Type Date Time Source
KMBL TAF 2024/04/18 06:21 UTC NOAA